Time;durP1;ratioP1;P1;durP2;ratioP2;P2;SDS_P1;SDS_P2;PMS_P1;PMS_P2;Temp;Humidity;BMP_temperature;BMP_pressure;BME280_temperature;BME280_humidity;BME280_pressure;Samples;Min_cycle;Max_cycle;Signal;HPM_P1;HPM_P2
2021/09/19 00:01:34;;;;;;;6.50;5.03;;;;;;;;;;6208915;28;20033;-88
2021/09/19 00:04:35;;;;;;;5.88;4.90;;;;;;;;;;6192511;28;20057;-87
2021/09/19 00:07:35;;;;;;;8.68;4.88;;;12.20;99.90;;;;;;6189202;28;20376;-87
2021/09/19 00:10:36;;;;;;;8.00;5.57;;;;;;;;;;6188623;28;20030;-88
2021/09/19 00:13:37;;;;;;;5.50;4.90;;;;;;;;;;6188940;28;20046;-88
2021/09/19 00:16:38;;;;;;;5.03;4.38;;;12.30;99.90;;;;;;6205778;28;20086;-89
2021/09/19 00:19:39;;;;;;;5.05;4.55;;;;;;;;;;6197081;28;20025;-88
2021/09/19 00:22:40;;;;;;;5.38;4.72;;;12.20;99.90;;;;;;6212267;28;20340;-89
2021/09/19 00:25:41;;;;;;;5.53;4.82;;;;;;;;;;6196498;28;20036;-89
2021/09/19 00:28:42;;;;;;;5.60;4.30;;;;;;;;;;6212729;28;20438;-88
2021/09/19 00:31:42;;;;;;;5.68;5.18;;;12.20;99.90;;;;;;6211900;28;20021;-88
2021/09/19 00:34:43;;;;;;;6.72;5.50;;;12.30;99.90;;;;;;6228790;28;20046;-88
2021/09/19 00:37:44;;;;;;;5.70;5.20;;;12.30;99.90;;;;;;6229028;28;20021;-89
2021/09/19 00:40:45;;;;;;;5.63;4.97;;;;;;;;;;6213144;28;20034;-89
2021/09/19 00:43:45;;;;;;;5.55;5.05;;;12.30;99.90;;;;;;6212443;28;20053;-86
2021/09/19 00:46:46;;;;;;;7.90;5.72;;;12.20;99.90;;;;;;6196050;28;20020;-88
2021/09/19 00:49:47;;;;;;;5.50;5.00;;;;;;;;;;6220492;28;20038;-87
2021/09/19 00:52:48;;;;;;;8.48;5.20;;;;;;;;;;6212349;28;20029;-87
2021/09/19 00:55:49;;;;;;;7.15;5.15;;;12.00;99.90;;;;;;6211957;28;20384;-89
2021/09/19 00:58:51;;;;;;;6.25;5.65;;;12.10;99.90;;;;;;6195410;28;20029;-87
2021/09/19 01:01:52;;;;;;;5.53;5.03;;;;;;;;;;6219023;28;20407;-86
2021/09/19 01:04:53;;;;;;;6.05;4.97;;;12.10;99.90;;;;;;6210983;28;20375;-86
2021/09/19 01:07:54;;;;;;;5.60;4.97;;;;;;;;;;6195516;28;20040;-87
2021/09/19 01:10:55;;;;;;;6.32;4.97;;;12.10;99.90;;;;;;6211486;28;20030;-88
2021/09/19 01:13:58;;;;;;;5.18;4.68;;;;;;;;;;6195184;28;20053;-88
2021/09/19 01:16:58;;;;;;;5.65;4.65;;;11.80;99.90;;;;;;6210826;28;20495;-88
2021/09/19 01:19:59;;;;;;;5.45;4.95;;;;;;;;;;6192322;28;20059;-88
2021/09/19 01:23:09;;;;;;;7.57;4.82;;;12.00;99.90;;;;;;6211540;28;20091;-88
2021/09/19 01:26:09;;;;;;;5.13;4.63;;;12.40;99.90;;;;;;6195961;28;20406;-86
2021/09/19 01:29:10;;;;;;;7.18;4.90;;;;;;;;;;6221737;28;20025;-88
2021/09/19 01:32:32;;;;;;;7.68;4.72;;;12.00;99.90;;;;;;6211208;28;20029;-90
2021/09/19 01:40:34;;;;;;;;;;;;;;;;;;;;;
2021/09/19 01:56:52;;;;;;;;;;;;;;;;;;;;;
2021/09/19 02:00:05;;;;;;;5.50;5.00;;;11.90;99.90;;;;;;5982192;29;20050;-86
2021/09/19 02:03:08;;;;;;;8.05;6.20;;;11.90;99.90;;;;;;5999751;29;20040;-90
2021/09/19 02:06:22;;;;;;;6.60;5.63;;;11.90;99.90;;;;;;5992962;29;20067;-89
2021/09/19 02:09:23;;;;;;;7.25;5.28;;;;;;;;;;5991239;29;20482;-87
2021/09/19 02:12:24;;;;;;;5.75;5.22;;;;;;;;;;5991122;29;20052;-87
2021/09/19 02:15:25;;;;;;;6.13;5.32;;;;;;;;;;5995599;29;20103;-88
2021/09/19 02:18:26;;;;;;;8.75;7.55;;;;;;;;;;5990102;29;20030;-89
2021/09/19 02:21:26;;;;;;;6.88;5.25;;;12.20;99.90;;;;;;5978060;29;20030;-88
2021/09/19 02:24:27;;;;;;;5.57;5.07;;;;;;;;;;5997522;29;20513;-88
2021/09/19 02:27:28;;;;;;;5.65;5.05;;;;;;;;;;6039998;29;20041;-88
2021/09/19 02:30:29;;;;;;;7.15;5.50;;;;;;;;;;6112710;29;20031;-88
2021/09/19 02:33:31;;;;;;;5.68;5.13;;;;;;;;;;6113224;29;20047;-88
2021/09/19 02:36:31;;;;;;;5.75;5.20;;;11.70;99.90;;;;;;6165342;28;20025;-87
2021/09/19 02:39:32;;;;;;;5.35;4.78;;;;;;;;;;6193835;28;20506;-87
2021/09/19 02:42:33;;;;;;;10.32;9.32;;;11.60;99.90;;;;;;6210215;28;20120;-88
2021/09/19 02:45:34;;;;;;;6.20;5.60;;;11.60;99.90;;;;;;6190583;28;20483;-89
2021/09/19 02:48:35;;;;;;;7.53;5.35;;;;;;;;;;6189927;28;20017;-89
2021/09/19 02:51:36;;;;;;;5.60;4.95;;;;;;;;;;6209008;28;20375;-88
2021/09/19 02:54:37;;;;;;;8.32;5.75;;;;;;;;;;6209635;28;20029;-88
2021/09/19 02:57:38;;;;;;;7.32;5.65;;;;;;;;;;6209291;28;20168;-89
2021/09/19 03:00:39;;;;;;;5.60;5.10;;;11.90;99.90;;;;;;6209440;28;20032;-88
2021/09/19 03:03:40;;;;;;;5.82;5.30;;;;;;;;;;6209990;28;20030;-90
2021/09/19 03:06:40;;;;;;;7.10;5.55;;;12.10;99.90;;;;;;6209894;28;20136;-88
2021/09/19 03:09:41;;;;;;;6.43;5.18;;;11.80;99.90;;;;;;6208908;28;20377;-87
2021/09/19 03:12:42;;;;;;;5.82;5.30;;;;;;;;;;6215100;28;20042;-87
2021/09/19 03:15:43;;;;;;;5.88;5.38;;;12.00;99.90;;;;;;6207737;28;20054;-86
2021/09/19 03:18:44;;;;;;;5.75;5.10;;;;;;;;;;6193174;28;20030;-88
2021/09/19 03:21:45;;;;;;;5.68;5.05;;;11.80;99.90;;;;;;6209703;28;20026;-88
2021/09/19 03:24:46;;;;;;;7.55;5.38;;;;;;;;;;6193379;28;20025;-88
2021/09/19 03:27:46;;;;;;;5.95;5.25;;;11.80;99.90;;;;;;6209321;28;20018;-89
2021/09/19 03:30:47;;;;;;;8.13;5.93;;;;;;;;;;6209460;28;20509;-88
2021/09/19 03:33:48;;;;;;;6.32;5.40;;;;;;;;;;6208503;28;20059;-88
2021/09/19 03:36:50;;;;;;;5.78;5.18;;;;;;;;;;6208978;28;20026;-88
2021/09/19 03:39:51;;;;;;;6.10;5.50;;;;;;;;;;6209018;28;20053;-88
2021/09/19 03:42:54;;;;;;;5.90;5.22;;;;;;;;;;6212319;28;20361;-88
2021/09/19 03:45:55;;;;;;;5.88;5.28;;;;;;;;;;6214112;28;20075;-88
2021/09/19 03:48:56;;;;;;;7.97;5.97;;;;;;;;;;6228255;28;20033;-87
2021/09/19 03:51:57;;;;;;;7.88;6.60;;;;;;;;;;6213421;28;20307;-86
2021/09/19 03:54:58;;;;;;;6.88;6.28;;;11.90;99.90;;;;;;6217431;28;20406;-87
2021/09/19 03:57:59;;;;;;;7.47;6.78;;;11.80;99.90;;;;;;6196705;28;20025;-87
2021/09/19 04:01:00;;;;;;;7.20;6.22;;;;;;;;;;6197707;28;20031;-87
2021/09/19 04:04:01;;;;;;;9.02;5.80;;;11.90;99.90;;;;;;6213233;28;20075;-86
2021/09/19 04:07:02;;;;;;;10.77;7.05;;;;;;;;;;6197069;28;20026;-87
2021/09/19 04:10:03;;;;;;;7.60;6.10;;;12.10;99.90;;;;;;6229556;28;20056;-87
2021/09/19 04:13:04;;;;;;;7.27;6.13;;;;;;;;;;6196759;28;20124;-87
2021/09/19 04:16:05;;;;;;;6.90;6.30;;;;;;;;;;6197518;28;20073;-88
2021/09/19 04:19:08;;;;;;;6.63;5.57;;;;;;;;;;6189451;28;20026;-87
2021/09/19 04:22:09;;;;;;;6.97;6.30;;;;;;;;;;6205139;28;20022;-86
2021/09/19 04:25:10;;;;;;;7.28;6.47;;;;;;;;;;6188680;28;20113;-87
2021/09/19 04:28:11;;;;;;;6.88;6.18;;;;;;;;;;6188782;28;20072;-88
2021/09/19 04:31:12;;;;;;;7.00;6.00;;;;;;;;;;6188225;28;20467;-86
2021/09/19 04:34:13;;;;;;;7.68;6.13;;;;;;;;;;6188338;28;20678;-86
2021/09/19 04:37:16;;;;;;;7.50;6.70;;;11.90;99.90;;;;;;6188190;28;20022;-88
2021/09/19 04:40:17;;;;;;;7.40;6.30;;;;;;;;;;6189131;28;20026;-88
2021/09/19 04:43:21;;;;;;;7.18;6.18;;;11.70;99.90;;;;;;6188232;28;20121;-89
2021/09/19 04:46:27;;;;;;;6.25;5.63;;;11.60;99.90;;;;;;6188460;28;20018;-89
2021/09/19 04:49:28;;;;;;;6.35;5.75;;;;;;;;;;6188526;28;20037;-88
2021/09/19 04:52:29;;;;;;;7.10;6.40;;;;;;;;;;6187945;28;20029;-88
2021/09/19 04:55:29;;;;;;;7.63;6.38;;;11.80;99.90;;;;;;6187768;28;20034;-88
2021/09/19 04:58:30;;;;;;;9.55;6.60;;;;;;;;;;6187661;28;20445;-88
2021/09/19 05:01:31;;;;;;;6.40;5.80;;;;;;;;;;6187432;28;20025;-88
2021/09/19 05:04:52;;;;;;;7.03;6.43;;;11.50;99.90;;;;;;6186944;28;20026;-91
2021/09/19 05:08:25;;;;;;;6.65;6.05;;;11.60;99.90;;;;;;6189406;28;20038;-90
2021/09/19 05:11:39;;;;;;;6.88;5.65;;;11.50;99.90;;;;;;6091488;29;20099;-90
2021/09/19 05:14:53;;;;;;;7.57;6.88;;;11.40;99.90;;;;;;6093401;29;20056;-91
2021/09/19 05:18:53;;;;;;;6.70;5.97;;;11.30;99.90;;;;;;6100665;29;20092;-90
2021/09/19 05:22:18;;;;;;;6.85;6.07;;;11.30;99.90;;;;;;6088899;29;20372;-90
2021/09/19 05:25:31;;;;;;;7.00;5.88;;;11.30;99.90;;;;;;6063550;29;20040;-90
2021/09/19 05:37:49;;;;;;;;;;;;;;;;;;;;;
2021/09/19 05:45:23;;;;;;;;;;;;;;;;;;;;;
2021/09/19 06:16:34;;;;;;;7.65;6.85;;;;;;;;;;5939590;29;20051;-90
2021/09/19 06:19:36;;;;;;;8.07;6.80;;;;;;;;;;5963793;29;20035;-85
2021/09/19 06:22:36;;;;;;;8.10;7.30;;;12.70;99.90;;;;;;5965243;29;20050;-87
2021/09/19 06:25:37;;;;;;;8.82;7.88;;;12.70;99.90;;;;;;5955837;29;20072;-87
2021/09/19 06:28:40;;;;;;;8.15;6.80;;;12.70;99.90;;;;;;5986563;29;20041;-89
2021/09/19 06:31:41;;;;;;;7.20;6.50;;;12.90;99.90;;;;;;6027009;29;20464;-85
2021/09/19 06:34:45;;;;;;;14.13;6.85;;;12.80;99.90;;;;;;6026808;29;20045;-88
2021/09/19 06:37:45;;;;;;;11.68;7.25;;;12.70;99.90;;;;;;6056558;29;20069;-86
2021/09/19 06:40:46;;;;;;;9.98;6.80;;;;;;;;;;6119781;28;20029;-86
2021/09/19 06:43:47;;;;;;;11.68;6.90;;;;;;;;;;6185439;28;20045;-89
2021/09/19 06:46:53;;;;;;;11.27;6.68;;;;;;;;;;6192450;28;20057;-88
2021/09/19 06:49:54;;;;;;;8.50;6.80;;;13.70;99.90;;;;;;6185521;28;20065;-86
2021/09/19 06:53:05;;;;;;;;;;;;;;;;;;;;;
2021/09/19 06:56:05;;;;;;;8.43;7.55;;;14.70;99.90;;;;;;6152571;28;20179;-85
2021/09/19 06:59:06;;;;;;;6.82;6.13;;;;;;;;;;6127306;28;20035;-87
2021/09/19 07:02:07;;;;;;;7.13;6.30;;;13.60;99.90;;;;;;6128508;28;20039;-82
2021/09/19 07:05:08;;;;;;;6.80;5.93;;;14.90;99.90;;;;;;6130709;28;20066;-83
2021/09/19 07:08:09;;;;;;;7.28;5.93;;;14.90;99.90;;;;;;6142553;28;20028;-84
2021/09/19 07:11:10;;;;;;;6.40;5.80;;;;;;;;;;6134324;28;20543;-84
2021/09/19 07:14:11;;;;;;;6.38;5.78;;;15.20;99.90;;;;;;6134922;28;20043;-84
2021/09/19 07:17:13;;;;;;;6.53;5.93;;;15.50;99.90;;;;;;6155337;28;20575;-87
2021/09/19 07:20:13;;;;;;;7.00;6.30;;;15.80;99.90;;;;;;6144397;28;20062;-84
2021/09/19 07:23:14;;;;;;;7.82;7.03;;;15.30;99.90;;;;;;6187378;28;20042;-83
2021/09/19 07:26:14;;;;;;;8.02;6.85;;;15.20;99.90;;;;;;6172980;28;20383;-84
2021/09/19 07:29:15;;;;;;;7.43;6.63;;;14.90;99.90;;;;;;6206502;28;20080;-82
2021/09/19 07:32:16;;;;;;;6.47;5.82;;;15.50;99.90;;;;;;6213408;28;20037;-86
2021/09/19 07:35:17;;;;;;;6.80;6.10;;;15.20;99.90;;;;;;6197971;28;20041;-81
2021/09/19 07:38:18;;;;;;;7.22;6.53;;;;;;;;;;6213005;28;20052;-87
2021/09/19 07:41:19;;;;;;;7.80;7.00;;;15.20;99.90;;;;;;6213585;28;20113;-86
2021/09/19 07:44:21;;;;;;;10.05;7.30;;;15.20;99.90;;;;;;6213928;28;20021;-87
2021/09/19 07:47:22;;;;;;;8.63;7.40;;;;;;;;;;6213571;28;20455;-86
2021/09/19 07:50:22;;;;;;;10.25;7.50;;;15.40;99.90;;;;;;6213625;28;20079;-87
2021/09/19 07:53:23;;;;;;;11.65;8.05;;;15.50;99.90;;;;;;6196939;28;20041;-86
2021/09/19 07:56:24;;;;;;;10.75;8.82;;;;;;;;;;6212696;28;20038;-84
2021/09/19 07:59:25;;;;;;;9.23;8.32;;;;;;;;;;6213782;28;20071;-87
2021/09/19 08:02:26;;;;;;;12.20;8.98;;;;;;;;;;6216526;28;20992;-86
2021/09/19 08:05:27;;;;;;;10.15;9.10;;;15.80;99.90;;;;;;6217607;28;20027;-87
2021/09/19 08:08:28;;;;;;;10.05;9.02;;;;;;;;;;6212902;28;20534;-84
2021/09/19 08:11:29;;;;;;;10.63;9.15;;;;;;;;;;6212650;28;20483;-85
2021/09/19 08:14:30;;;;;;;11.05;9.00;;;;;;;;;;6211887;28;20036;-85
2021/09/19 08:17:31;;;;;;;9.60;8.43;;;;;;;;;;6202724;28;20050;-87
2021/09/19 08:20:31;;;;;;;9.57;8.57;;;16.30;99.90;;;;;;6203432;28;20472;-87
2021/09/19 08:23:33;;;;;;;9.02;8.13;;;;;;;;;;6186475;28;20058;-84
2021/09/19 08:26:34;;;;;;;9.55;8.55;;;16.80;99.90;;;;;;6210377;28;20094;-87
2021/09/19 08:29:35;;;;;;;10.18;7.97;;;18.10;99.90;;;;;;6193338;28;20022;-87
2021/09/19 08:32:36;;;;;;;11.27;9.38;;;17.70;99.90;;;;;;6212283;28;20349;-86
2021/09/19 08:35:37;;;;;;;8.40;7.28;;;17.90;99.90;;;;;;6188319;28;20034;-84
2021/09/19 08:41:58;;;;;;;6.90;6.20;;;;;;;;;;6221293;28;20038;-88
2021/09/19 08:44:59;;;;;;;8.38;7.55;;;18.00;99.90;;;;;;6220675;28;20048;-86
2021/09/19 08:47:59;;;;;;;9.23;7.90;;;18.00;99.90;;;;;;6187396;28;20052;-87
2021/09/19 08:51:00;;;;;;;15.88;13.35;;;;;;;;;;6187258;28;20030;-85
2021/09/19 08:54:01;;;;;;;11.25;10.15;;;17.50;99.90;;;;;;6203664;28;20116;-86
2021/09/19 08:57:01;;;;;;;7.85;7.05;;;17.30;99.90;;;;;;6172342;28;20045;-87
2021/09/19 09:00:09;;;;;;;8.65;7.85;;;17.20;99.90;;;;;;6187508;28;20040;-88
2021/09/19 09:03:11;;;;;;;7.60;6.32;;;16.90;99.90;;;;;;6202989;28;20121;-88
2021/09/19 09:06:14;;;;;;;7.40;6.70;;;16.80;99.90;;;;;;6187734;28;20441;-89
2021/09/19 09:09:16;;;;;;;4.15;3.75;;;16.70;99.90;;;;;;6187367;28;20090;-86
2021/09/19 09:12:16;;;;;;;2.72;2.42;;;16.70;99.90;;;;;;6187031;28;20029;-86
2021/09/19 09:15:17;;;;;;;2.50;2.28;;;;;;;;;;6194418;28;20042;-86
2021/09/19 09:18:28;;;;;;;2.20;2.03;;;16.80;99.90;;;;;;6211088;28;20088;-85
2021/09/19 09:21:30;;;;;;;2.60;2.40;;;16.60;99.90;;;;;;6211623;28;20033;-84
2021/09/19 09:24:31;;;;;;;2.35;2.00;;;;;;;;;;6195149;28;20480;-86
2021/09/19 09:28:00;;;;;;;2.00;1.90;;;16.50;99.90;;;;;;6211104;28;20148;-86
2021/09/19 09:31:00;;;;;;;2.50;2.30;;;16.70;99.90;;;;;;6219442;28;20443;-86
2021/09/19 09:34:09;;;;;;;3.70;2.50;;;16.30;99.90;;;;;;6194919;28;20041;-89
2021/09/19 09:37:09;;;;;;;2.40;2.03;;;16.30;99.90;;;;;;6210688;28;20025;-88
2021/09/19 09:40:14;;;;;;;1.40;1.30;;;16.30;99.90;;;;;;6193404;28;20087;-85
2021/09/19 09:43:16;;;;;;;1.23;1.13;;;16.20;99.90;;;;;;6211429;28;20083;-85
2021/09/19 09:46:18;;;;;;;1.80;1.70;;;16.30;99.90;;;;;;6194493;28;20064;-89
2021/09/19 09:49:38;;;;;;;2.70;2.22;;;16.30;99.90;;;;;;6209976;28;20047;-86
2021/09/19 09:52:39;;;;;;;3.28;2.72;;;16.30;99.90;;;;;;6226638;28;20478;-85
2021/09/19 09:55:43;;;;;;;4.88;3.30;;;16.30;99.90;;;;;;6192642;28;20029;-87
2021/09/19 09:58:44;;;;;;;5.18;3.65;;;16.30;99.90;;;;;;6208699;28;20018;-88
2021/09/19 10:01:45;;;;;;;4.97;4.10;;;16.40;99.90;;;;;;6210118;28;20422;-87
2021/09/19 10:04:45;;;;;;;4.18;3.78;;;16.40;99.90;;;;;;6209957;28;20018;-85
2021/09/19 10:07:46;;;;;;;2.85;2.55;;;16.40;99.90;;;;;;6209928;28;20025;-85
2021/09/19 10:10:47;;;;;;;2.60;2.40;;;16.40;99.90;;;;;;6197041;28;20120;-85
2021/09/19 10:13:49;;;;;;;1.83;1.73;;;16.30;99.90;;;;;;6209972;28;20026;-89
2021/09/19 10:16:50;;;;;;;2.13;1.85;;;;;;;;;;6209152;28;20053;-86
2021/09/19 10:23:59;;;;;;;2.03;1.20;;;;;;;;;;6172308;28;20038;-85
2021/09/19 10:27:00;;;;;;;0.90;0.90;;;16.00;99.90;;;;;;6209398;28;20040;-86
2021/09/19 10:30:06;;;;;;;0.90;0.90;;;15.90;99.90;;;;;;6210664;28;20036;-86
2021/09/19 10:33:33;;;;;;;1.58;1.48;;;15.90;99.90;;;;;;6209695;28;20128;-86
2021/09/19 10:40:11;;;;;;;1.45;1.20;;;16.10;99.90;;;;;;6243402;28;20060;-86
2021/09/19 10:43:17;;;;;;;1.17;0.65;;;15.70;99.90;;;;;;6192008;28;20382;-85
2021/09/19 10:46:36;;;;;;;0.50;0.50;;;15.70;99.90;;;;;;6203491;28;20463;-85
2021/09/19 10:49:37;;;;;;;1.00;1.00;;;15.80;99.90;;;;;;6234983;28;20452;-86
2021/09/19 10:52:41;;;;;;;0.80;0.80;;;15.60;99.90;;;;;;6208537;28;20128;-86
2021/09/19 10:55:57;;;;;;;0.90;0.90;;;15.60;99.90;;;;;;6209445;28;20102;-85
2021/09/19 10:58:57;;;;;;;0.90;0.90;;;15.20;99.90;;;;;;6209414;28;20426;-85
2021/09/19 11:01:58;;;;;;;1.33;1.13;;;;;;;;;;6208653;28;20027;-86
2021/09/19 11:05:21;;;;;;;2.15;1.52;;;15.40;99.90;;;;;;6225491;28;20058;-85
2021/09/19 11:08:22;;;;;;;4.07;2.60;;;15.50;99.90;;;;;;6208732;28;20029;-85
2021/09/19 11:11:24;;;;;;;2.22;2.03;;;15.60;99.90;;;;;;6225140;28;20110;-87
2021/09/19 11:14:25;;;;;;;4.97;3.47;;;;;;;;;;6192241;28;20056;-86
2021/09/19 11:17:28;;;;;;;2.03;1.83;;;15.70;99.90;;;;;;6208742;28;20076;-87
2021/09/19 11:20:31;;;;;;;1.65;1.48;;;15.60;99.90;;;;;;6222502;28;20044;-86
2021/09/19 11:23:32;;;;;;;2.13;1.20;;;15.80;99.90;;;;;;6193632;28;20049;-88
2021/09/19 11:26:38;;;;;;;4.00;2.28;;;17.40;99.90;;;;;;6192707;28;20425;-85
2021/09/19 11:29:38;;;;;;;2.75;2.13;;;15.60;99.90;;;;;;6208737;28;20030;-86
2021/09/19 11:32:40;;;;;;;3.92;3.17;;;;;;;;;;6209288;28;20455;-88
2021/09/19 11:35:40;;;;;;;1.70;1.55;;;15.60;99.90;;;;;;6208840;28;20795;-86
2021/09/19 11:38:46;;;;;;;1.35;1.25;;;16.00;99.90;;;;;;6193166;28;20027;-86
2021/09/19 11:41:47;;;;;;;1.75;1.08;;;15.40;99.90;;;;;;6193264;28;20030;-87
2021/09/19 11:44:50;;;;;;;4.10;2.92;;;15.30;99.90;;;;;;6189202;28;20034;-86
2021/09/19 11:47:52;;;;;;;1.98;1.75;;;15.30;99.90;;;;;;6208839;28;20037;-86
2021/09/19 11:50:53;;;;;;;2.90;2.13;;;15.20;99.90;;;;;;6192915;28;20025;-86
2021/09/19 11:53:55;;;;;;;1.98;0.98;;;15.20;99.90;;;;;;6220798;28;20073;-86
2021/09/19 11:56:56;;;;;;;3.08;1.55;;;;;;;;;;6192525;28;20033;-87
2021/09/19 12:00:03;;;;;;;2.38;1.73;;;15.00;99.90;;;;;;6208388;28;20025;-89
2021/09/19 12:03:04;;;;;;;2.72;1.60;;;14.90;99.90;;;;;;6193838;28;20080;-86
2021/09/19 12:06:05;;;;;;;1.42;1.33;;;;;;;;;;6197462;28;20030;-86
2021/09/19 12:09:16;;;;;;;0.75;0.75;;;15.00;99.90;;;;;;6212456;28;20021;-86
2021/09/19 12:12:16;;;;;;;2.00;1.15;;;15.00;99.90;;;;;;6197853;28;20021;-86
2021/09/19 12:15:25;;;;;;;2.17;1.98;;;14.60;99.90;;;;;;6192639;28;20049;-86
2021/09/19 12:18:35;;;;;;;1.75;1.13;;;14.50;99.90;;;;;;6212415;28;20510;-88
2021/09/19 12:21:37;;;;;;;3.10;2.80;;;14.80;99.90;;;;;;6212104;28;20107;-86
2021/09/19 12:24:38;;;;;;;2.80;2.10;;;14.70;99.90;;;;;;6212773;28;20021;-86
2021/09/19 12:27:43;;;;;;;1.42;1.33;;;14.70;99.90;;;;;;6196743;28;20116;-87
2021/09/19 12:30:44;;;;;;;1.35;1.25;;;14.70;99.90;;;;;;6228191;28;20561;-86
2021/09/19 12:33:52;;;;;;;1.52;1.42;;;14.70;99.90;;;;;;6216727;28;20029;-86
2021/09/19 12:37:07;;;;;;;2.45;1.38;;;14.60;99.90;;;;;;6200160;28;20067;-88
2021/09/19 12:40:10;;;;;;;1.02;1.02;;;15.00;99.90;;;;;;6213880;28;20036;-87
2021/09/19 12:43:12;;;;;;;3.45;1.75;;;14.60;99.90;;;;;;6196074;28;20125;-85
2021/09/19 12:46:16;;;;;;;2.45;1.58;;;14.60;99.90;;;;;;6215855;28;20151;-86
2021/09/19 12:49:25;;;;;;;1.80;1.70;;;14.60;99.90;;;;;;6212105;28;20060;-89
2021/09/19 12:52:30;;;;;;;2.50;2.30;;;14.80;99.90;;;;;;6192197;28;20046;-86
2021/09/19 12:55:31;;;;;;;3.00;2.78;;;14.80;99.90;;;;;;6218061;28;20049;-89
2021/09/19 12:58:32;;;;;;;4.60;3.83;;;14.60;99.90;;;;;;6192887;28;20617;-88
2021/09/19 13:01:33;;;;;;;2.40;2.20;;;;;;;;;;6211297;28;20025;-89
2021/09/19 13:04:38;;;;;;;4.55;4.10;;;14.90;99.90;;;;;;6213013;28;20527;-88
2021/09/19 13:07:38;;;;;;;2.80;2.50;;;15.30;99.90;;;;;;6208776;28;20471;-90
2021/09/19 13:10:40;;;;;;;2.53;2.28;;;;;;;;;;6194684;28;20036;-90
2021/09/19 13:13:41;;;;;;;1.52;1.42;;;;;;;;;;6210986;28;20047;-88
2021/09/19 13:16:42;;;;;;;1.83;1.67;;;;;;;;;;6208475;28;20063;-88
2021/09/19 13:19:43;;;;;;;2.60;1.88;;;;;;;;;;6206316;28;20029;-89
2021/09/19 13:22:47;;;;;;;1.67;1.58;;;;;;;;;;6210898;28;20049;-92
2021/09/19 13:25:48;;;;;;;2.78;1.90;;;;;;;;;;6212377;28;20064;-90
2021/09/19 13:28:49;;;;;;;1.95;1.38;;;;;;;;;;6212602;28;20029;-91
2021/09/19 13:31:54;;;;;;;2.20;1.40;;;;;;;;;;6209560;28;20025;-90
2021/09/19 13:34:55;;;;;;;1.38;1.27;;;;;;;;;;6211735;28;20156;-90
2021/09/19 13:37:56;;;;;;;1.05;1.02;;;;;;;;;;6211947;28;20030;-90
2021/09/19 13:40:57;;;;;;;1.83;1.15;;;;;;;;;;6211276;28;20109;-84
2021/09/19 13:43:58;;;;;;;6.18;2.92;;;;;;;;;;6210128;28;20112;-83
2021/09/19 13:47:00;;;;;;;2.20;2.00;;;;;;;;;;6227971;28;20033;-87
2021/09/19 13:50:36;;;;;;;5.97;2.17;;;14.70;99.90;;;;;;6209445;28;20034;-89
2021/09/19 13:53:42;;;;;;;3.28;2.17;;;14.50;99.90;;;;;;6211604;28;20157;-90
2021/09/19 13:56:47;;;;;;;1.83;1.73;;;14.60;99.90;;;;;;6202939;28;20029;-90
2021/09/19 13:59:51;;;;;;;2.90;1.55;;;14.70;99.90;;;;;;6215621;28;20032;-87
2021/09/19 14:02:52;;;;;;;1.38;1.08;;;14.70;99.90;;;;;;6197191;28;20022;-86
2021/09/19 14:05:55;;;;;;;1.65;1.52;;;14.70;99.90;;;;;;6191576;28;20467;-91
2021/09/19 14:09:11;;;;;;;0.95;0.95;;;14.70;99.90;;;;;;6211707;28;20087;-90
2021/09/19 14:12:12;;;;;;;1.10;1.00;;;15.00;99.90;;;;;;6206511;28;20083;-88
2021/09/19 14:15:13;;;;;;;2.42;1.73;;;;;;;;;;6207031;28;20420;-86
2021/09/19 14:18:14;;;;;;;1.58;1.48;;;;;;;;;;6204452;28;20045;-90
2021/09/19 14:21:20;;;;;;;1.65;1.40;;;14.70;99.90;;;;;;6211253;28;20121;-90
2021/09/19 14:24:21;;;;;;;1.70;1.60;;;14.60;99.90;;;;;;6194518;28;20097;-90
2021/09/19 14:27:31;;;;;;;1.80;1.25;;;14.90;99.90;;;;;;6193904;28;20036;-87
2021/09/19 14:30:32;;;;;;;3.67;2.10;;;16.50;99.90;;;;;;6206246;28;20364;-89
2021/09/19 14:33:38;;;;;;;1.40;1.30;;;15.00;99.90;;;;;;6214393;28;20040;-90
2021/09/19 14:36:41;;;;;;;1.45;1.35;;;14.20;99.90;;;;;;6230422;28;20029;-91
2021/09/19 14:39:42;;;;;;;1.30;1.20;;;14.80;99.90;;;;;;6226202;28;20025;-90
2021/09/19 14:42:46;;;;;;;1.25;1.15;;;14.50;99.90;;;;;;6201120;28;20025;-90
2021/09/19 14:45:46;;;;;;;2.72;1.65;;;15.90;99.90;;;;;;6209351;28;20368;-84
2021/09/19 14:48:47;;;;;;;1.90;1.65;;;14.50;99.90;;;;;;6209588;28;20030;-83
2021/09/19 14:51:48;;;;;;;3.88;2.25;;;;;;;;;;6208624;28;20368;-83
2021/09/19 14:54:49;;;;;;;6.68;2.70;;;14.70;99.90;;;;;;6226086;28;20025;-90
2021/09/19 14:57:56;;;;;;;2.97;2.55;;;14.50;99.90;;;;;;6194116;28;20387;-92
2021/09/19 15:01:00;;;;;;;4.53;3.40;;;14.50;99.90;;;;;;6194310;28;20029;-91
2021/09/19 15:04:13;;;;;;;2.45;2.20;;;14.40;99.90;;;;;;6193945;28;20032;-91
2021/09/19 15:07:14;;;;;;;2.15;1.95;;;;;;;;;;6193640;28;20053;-90
2021/09/19 15:10:24;;;;;;;2.17;1.98;;;14.40;99.90;;;;;;6210328;28;20026;-92
2021/09/19 15:13:26;;;;;;;1.33;1.20;;;14.40;99.90;;;;;;6146740;28;20039;-90
2021/09/19 15:16:27;;;;;;;1.20;1.20;;;;;;;;;;6157821;28;20034;-89
2021/09/19 15:19:28;;;;;;;1.45;1.40;;;;;;;;;;6160392;28;20049;-90
2021/09/19 15:26:22;;;;;;;2.55;2.00;;;14.40;99.90;;;;;;6116135;28;20032;-92
2021/09/19 15:29:25;;;;;;;2.17;1.97;;;;;;;;;;6145931;28;20101;-89
2021/09/19 15:32:26;;;;;;;1.20;1.20;;;;;;;;;;6161384;28;20041;-91
2021/09/19 15:35:30;;;;;;;1.02;1.00;;;14.20;99.90;;;;;;6160610;28;20080;-90
2021/09/19 15:42:43;;;;;;;;;;;;;;;;;;;;;
2021/09/19 15:49:48;;;;;;;1.58;0.85;;;;;;;;;;6100969;29;20088;-87
2021/09/19 15:52:49;;;;;;;2.75;1.90;;;;;;;;;;6085469;29;20142;-86
2021/09/19 15:55:50;;;;;;;1.50;1.40;;;14.00;99.90;;;;;;6085233;29;20044;-86
2021/09/19 15:58:51;;;;;;;1.15;1.13;;;14.00;99.90;;;;;;6083370;29;20044;-87
2021/09/19 16:01:51;;;;;;;1.60;1.50;;;13.90;99.90;;;;;;6095467;29;20040;-85
2021/09/19 16:04:52;;;;;;;3.92;1.90;;;13.90;99.90;;;;;;6068337;29;20113;-83
2021/09/19 16:07:53;;;;;;;1.52;1.25;;;;;;;;;;6081846;29;20046;-85
2021/09/19 16:10:54;;;;;;;1.02;1.00;;;14.00;99.90;;;;;;6083934;29;20031;-88
2021/09/19 16:13:55;;;;;;;0.80;0.73;;;;;;;;;;6095720;29;20127;-87
2021/09/19 16:16:55;;;;;;;1.10;1.02;;;13.70;99.90;;;;;;6078208;29;20139;-85
2021/09/19 16:19:56;;;;;;;1.25;1.15;;;13.80;99.90;;;;;;6070273;29;20184;-87
2021/09/19 16:22:57;;;;;;;0.85;0.85;;;13.80;99.90;;;;;;6071970;29;20616;-86
2021/09/19 16:25:57;;;;;;;1.70;1.60;;;13.80;99.90;;;;;;6096514;28;20153;-83
2021/09/19 16:28:58;;;;;;;2.65;1.70;;;13.70;99.90;;;;;;6171659;28;20064;-89
2021/09/19 16:31:59;;;;;;;2.78;2.45;;;13.60;99.90;;;;;;6182295;28;20522;-87
2021/09/19 16:35:00;;;;;;;1.88;1.67;;;;;;;;;;6165200;28;20041;-87
2021/09/19 16:38:04;;;;;;;2.55;1.55;;;13.60;99.90;;;;;;6187652;28;20525;-93
2021/09/19 16:41:05;;;;;;;2.70;1.38;;;13.60;99.90;;;;;;6187258;28;20412;-85
2021/09/19 16:44:06;;;;;;;3.78;1.38;;;13.50;99.90;;;;;;6186946;28;20452;-83
2021/09/19 16:47:07;;;;;;;2.05;1.20;;;;;;;;;;6188030;28;20041;-85
2021/09/19 16:50:08;;;;;;;1.65;1.13;;;13.50;99.90;;;;;;6177045;28;20153;-87
2021/09/19 16:53:09;;;;;;;1.38;1.27;;;;;;;;;;6171662;28;20463;-86
2021/09/19 16:56:09;;;;;;;1.55;1.27;;;13.40;99.90;;;;;;6188038;28;20072;-86
2021/09/19 16:59:10;;;;;;;1.60;1.33;;;13.40;99.90;;;;;;6187283;28;20026;-85
2021/09/19 17:02:11;;;;;;;1.50;1.40;;;13.30;99.90;;;;;;6187672;28;20392;-86
2021/09/19 17:05:12;;;;;;;1.80;1.70;;;;;;;;;;6187030;28;20076;-83
2021/09/19 17:08:13;;;;;;;2.05;1.80;;;13.50;99.90;;;;;;6204205;28;20025;-85
2021/09/19 17:11:16;;;;;;;1.52;1.42;;;13.40;99.90;;;;;;6187103;28;20034;-86
2021/09/19 17:14:16;;;;;;;3.22;2.13;;;13.40;99.90;;;;;;6186952;28;20136;-85
2021/09/19 17:17:17;;;;;;;2.75;2.35;;;13.40;99.90;;;;;;6194502;28;20511;-86
2021/09/19 17:20:18;;;;;;;2.55;1.60;;;;;;;;;;6195609;28;20025;-86
2021/09/19 17:23:19;;;;;;;2.10;1.20;;;;;;;;;;6211553;28;20682;-88
2021/09/19 17:26:20;;;;;;;3.47;2.50;;;13.50;99.90;;;;;;6211344;28;20048;-81
2021/09/19 17:29:21;;;;;;;1.52;1.20;;;13.30;99.90;;;;;;6245367;28;20044;-89
2021/09/19 17:32:22;;;;;;;1.33;1.20;;;;;;;;;;6189571;28;20036;-86
2021/09/19 17:35:22;;;;;;;1.23;1.10;;;13.20;99.90;;;;;;6210725;28;20733;-87
2021/09/19 17:38:23;;;;;;;1.23;1.13;;;;;;;;;;6194607;28;20143;-85
2021/09/19 17:41:26;;;;;;;1.15;1.05;;;13.30;99.90;;;;;;6227809;28;20032;-86
2021/09/19 17:44:27;;;;;;;1.40;1.15;;;13.30;99.90;;;;;;6209674;28;20068;-83
2021/09/19 17:47:27;;;;;;;1.00;1.00;;;13.30;99.90;;;;;;6210354;28;20029;-84
2021/09/19 17:50:28;;;;;;;0.93;0.90;;;13.20;99.90;;;;;;6191882;28;20100;-85
2021/09/19 17:53:29;;;;;;;2.00;1.40;;;;;;;;;;6194160;28;20041;-87
2021/09/19 17:56:34;;;;;;;1.75;1.65;;;13.20;99.90;;;;;;6205217;28;20042;-83
2021/09/19 17:59:35;;;;;;;1.92;1.80;;;;;;;;;;6216644;28;20448;-87
2021/09/19 18:02:36;;;;;;;1.80;1.70;;;;;;;;;;6209525;28;20030;-85
2021/09/19 18:05:37;;;;;;;2.08;1.85;;;13.00;99.90;;;;;;6209093;28;20033;-84
2021/09/19 18:08:38;;;;;;;1.95;1.80;;;;;;;;;;6209221;28;20021;-86
2021/09/19 18:11:39;;;;;;;2.08;1.88;;;;;;;;;;6207396;28;20470;-88